sensor_id;sensor_type;location;lat;lon;timestamp;temperature;humidity
14397;DHT22;50653;47.810;13.022;2023-02-26T00:01:01;2.20;99.90
14397;DHT22;50653;47.810;13.022;2023-02-26T00:03:28;2.20;99.90
14397;DHT22;50653;47.810;13.022;2023-02-26T00:05:58;2.10;99.90
14397;DHT22;50653;47.810;13.022;2023-02-26T00:08:24;2.30;99.90
14397;DHT22;50653;47.810;13.022;2023-02-26T00:10:50;2.20;99.90
14397;DHT22;50653;47.810;13.022;2023-02-26T00:13:16;1.90;99.90
14397;DHT22;50653;47.810;13.022;2023-02-26T00:15:41;1.90;99.90
14397;DHT22;50653;47.810;13.022;2023-02-26T00:18:13;2.00;99.90
14397;DHT22;50653;47.810;13.022;2023-02-26T00:20:40;1.90;99.90
14397;DHT22;50653;47.810;13.022;2023-02-26T00:23:11;1.80;99.90
14397;DHT22;50653;47.810;13.022;2023-02-26T00:25:39;1.80;99.90
14397;DHT22;50653;47.810;13.022;2023-02-26T00:28:05;1.90;99.90
14397;DHT22;50653;47.810;13.022;2023-02-26T00:30:31;1.90;99.90
14397;DHT22;50653;47.810;13.022;2023-02-26T00:32:57;1.90;99.90
14397;DHT22;50653;47.810;13.022;2023-02-26T00:35:23;1.90;99.90
14397;DHT22;50653;47.810;13.022;2023-02-26T00:43:19;1.70;99.90
14397;DHT22;50653;47.810;13.022;2023-02-26T00:48:51;1.60;99.90
14397;DHT22;50653;47.810;13.022;2023-02-26T00:56:40;1.40;99.90
14397;DHT22;50653;47.810;13.022;2023-02-26T00:59:06;1.20;99.90
14397;DHT22;50653;47.810;13.022;2023-02-26T01:01:31;1.20;99.90
14397;DHT22;50653;47.810;13.022;2023-02-26T01:03:57;1.20;99.90
14397;DHT22;50653;47.810;13.022;2023-02-26T01:06:29;1.40;99.90
14397;DHT22;50653;47.810;13.022;2023-02-26T01:11:51;1.30;99.90
14397;DHT22;50653;47.810;13.022;2023-02-26T01:14:17;1.20;99.90
14397;DHT22;50653;47.810;13.022;2023-02-26T01:19:46;0.80;99.90
14397;DHT22;50653;47.810;13.022;2023-02-26T01:22:30;0.60;99.90
14397;DHT22;50653;47.810;13.022;2023-02-26T01:25:07;0.20;99.90
14397;DHT22;50653;47.810;13.022;2023-02-26T01:27:33;-0.10;99.90
14397;DHT22;50653;47.810;13.022;2023-02-26T01:29:59;0.00;99.90
14397;DHT22;50653;47.810;13.022;2023-02-26T01:35:55;-0.10;99.90
14397;DHT22;50653;47.810;13.022;2023-02-26T01:38:39;-0.30;99.90
14397;DHT22;50653;47.810;13.022;2023-02-26T01:43:50;-0.30;99.90
14397;DHT22;50653;47.810;13.022;2023-02-26T01:46:42;-0.30;99.90
14397;DHT22;50653;47.810;13.022;2023-02-26T01:49:14;-0.20;99.90
14397;DHT22;50653;47.810;13.022;2023-02-26T01:54:19;-0.20;99.90
14397;DHT22;50653;47.810;13.022;2023-02-26T01:56:48;-0.30;99.90
14397;DHT22;50653;47.810;13.022;2023-02-26T01:59:16;-0.30;99.90
14397;DHT22;50653;47.810;13.022;2023-02-26T02:01:45;-0.40;99.90
14397;DHT22;50653;47.810;13.022;2023-02-26T02:04:13;-0.40;99.90
14397;DHT22;50653;47.810;13.022;2023-02-26T02:06:40;-0.30;99.90
14397;DHT22;50653;47.810;13.022;2023-02-26T02:09:07;-0.50;99.90
14397;DHT22;50653;47.810;13.022;2023-02-26T02:11:34;-0.50;99.90
14397;DHT22;50653;47.810;13.022;2023-02-26T02:33:18;-0.60;99.90
14397;DHT22;50653;47.810;13.022;2023-02-26T02:35:51;-0.70;99.90
14397;DHT22;50653;47.810;13.022;2023-02-26T02:38:22;-0.70;99.90
14397;DHT22;50653;47.810;13.022;2023-02-26T02:40:57;-0.70;99.90
14397;DHT22;50653;47.810;13.022;2023-02-26T02:43:30;-0.70;99.90
14397;DHT22;50653;47.810;13.022;2023-02-26T02:46:05;-0.90;99.90
14397;DHT22;50653;47.810;13.022;2023-02-26T02:48:38;-0.90;99.90
14397;DHT22;50653;47.810;13.022;2023-02-26T02:51:18;-0.90;99.90
14397;DHT22;50653;47.810;13.022;2023-02-26T02:54:03;-0.70;99.90
14397;DHT22;50653;47.810;13.022;2023-02-26T02:56:37;-0.70;99.90
14397;DHT22;50653;47.810;13.022;2023-02-26T02:59:21;-0.70;99.90
14397;DHT22;50653;47.810;13.022;2023-02-26T03:01:52;-0.80;99.90
14397;DHT22;50653;47.810;13.022;2023-02-26T03:04:21;-0.80;99.90
14397;DHT22;50653;47.810;13.022;2023-02-26T03:06:47;-0.80;99.90
14397;DHT22;50653;47.810;13.022;2023-02-26T03:09:17;-0.80;99.90
14397;DHT22;50653;47.810;13.022;2023-02-26T03:11:43;-0.70;99.90
14397;DHT22;50653;47.810;13.022;2023-02-26T03:14:09;-0.70;99.90
14397;DHT22;50653;47.810;13.022;2023-02-26T03:17:05;-0.60;99.90
14397;DHT22;50653;47.810;13.022;2023-02-26T03:28:34;-0.80;99.90
14397;DHT22;50653;47.810;13.022;2023-02-26T03:31:20;-0.80;99.90
14397;DHT22;50653;47.810;13.022;2023-02-26T03:33:59;-0.50;99.90
14397;DHT22;50653;47.810;13.022;2023-02-26T03:36:31;-0.60;99.90
14397;DHT22;50653;47.810;13.022;2023-02-26T03:39:28;-0.80;99.90
14397;DHT22;50653;47.810;13.022;2023-02-26T03:42:10;-0.80;99.90
14397;DHT22;50653;47.810;13.022;2023-02-26T03:44:55;-0.80;99.90
14397;DHT22;50653;47.810;13.022;2023-02-26T03:47:22;-0.80;99.90
14397;DHT22;50653;47.810;13.022;2023-02-26T03:50:11;-0.70;99.90
14397;DHT22;50653;47.810;13.022;2023-02-26T03:52:48;-0.70;99.90
14397;DHT22;50653;47.810;13.022;2023-02-26T03:55:33;-0.60;99.90
14397;DHT22;50653;47.810;13.022;2023-02-26T03:58:18;-0.70;99.90
14397;DHT22;50653;47.810;13.022;2023-02-26T04:01:12;-0.90;99.90
14397;DHT22;50653;47.810;13.022;2023-02-26T04:03:53;-0.90;99.90
14397;DHT22;50653;47.810;13.022;2023-02-26T04:06:21;-0.90;99.90
14397;DHT22;50653;47.810;13.022;2023-02-26T04:08:47;-0.90;99.90
14397;DHT22;50653;47.810;13.022;2023-02-26T04:11:18;-0.80;99.90
14397;DHT22;50653;47.810;13.022;2023-02-26T04:13:46;-0.80;99.90
14397;DHT22;50653;47.810;13.022;2023-02-26T04:16:12;-0.90;99.90
14397;DHT22;50653;47.810;13.022;2023-02-26T04:18:39;-0.90;99.90
14397;DHT22;50653;47.810;13.022;2023-02-26T04:21:10;-0.90;99.90
14397;DHT22;50653;47.810;13.022;2023-02-26T04:23:36;-0.80;99.90
14397;DHT22;50653;47.810;13.022;2023-02-26T04:26:03;-0.90;99.90
14397;DHT22;50653;47.810;13.022;2023-02-26T04:28:29;-0.80;99.90
14397;DHT22;50653;47.810;13.022;2023-02-26T04:30:55;-0.80;99.90
14397;DHT22;50653;47.810;13.022;2023-02-26T04:33:21;-0.90;99.90
14397;DHT22;50653;47.810;13.022;2023-02-26T04:35:48;-0.80;99.90
14397;DHT22;50653;47.810;13.022;2023-02-26T04:38:13;-0.70;99.90
14397;DHT22;50653;47.810;13.022;2023-02-26T04:40:40;-0.70;99.90
14397;DHT22;50653;47.810;13.022;2023-02-26T04:43:08;-0.80;99.90
14397;DHT22;50653;47.810;13.022;2023-02-26T04:45:41;-0.80;99.90
14397;DHT22;50653;47.810;13.022;2023-02-26T04:48:09;-0.80;99.90
14397;DHT22;50653;47.810;13.022;2023-02-26T04:50:35;-0.90;99.90
14397;DHT22;50653;47.810;13.022;2023-02-26T04:53:01;-0.90;99.90
14397;DHT22;50653;47.810;13.022;2023-02-26T04:55:27;-1.00;99.90
14397;DHT22;50653;47.810;13.022;2023-02-26T04:57:53;-0.80;99.90
14397;DHT22;50653;47.810;13.022;2023-02-26T05:00:22;-0.90;99.90
14397;DHT22;50653;47.810;13.022;2023-02-26T05:02:48;-0.90;99.90
14397;DHT22;50653;47.810;13.022;2023-02-26T05:05:13;-1.00;99.90
14397;DHT22;50653;47.810;13.022;2023-02-26T05:07:39;-1.00;99.90
14397;DHT22;50653;47.810;13.022;2023-02-26T05:10:05;-1.10;99.90
14397;DHT22;50653;47.810;13.022;2023-02-26T05:12:31;-1.00;99.90
14397;DHT22;50653;47.810;13.022;2023-02-26T05:14:58;-1.10;99.90
14397;DHT22;50653;47.810;13.022;2023-02-26T05:17:24;-1.00;99.90
14397;DHT22;50653;47.810;13.022;2023-02-26T05:19:50;-0.90;99.90
14397;DHT22;50653;47.810;13.022;2023-02-26T05:22:16;-1.00;99.90
14397;DHT22;50653;47.810;13.022;2023-02-26T05:24:42;-1.00;99.90
14397;DHT22;50653;47.810;13.022;2023-02-26T05:27:09;-1.10;99.90
14397;DHT22;50653;47.810;13.022;2023-02-26T05:29:40;-1.00;99.90
14397;DHT22;50653;47.810;13.022;2023-02-26T05:32:11;-1.00;99.90
14397;DHT22;50653;47.810;13.022;2023-02-26T05:34:36;-1.00;99.90
14397;DHT22;50653;47.810;13.022;2023-02-26T05:37:02;-1.10;99.90
14397;DHT22;50653;47.810;13.022;2023-02-26T05:39:28;-1.00;99.90
14397;DHT22;50653;47.810;13.022;2023-02-26T05:41:54;-1.00;99.90
14397;DHT22;50653;47.810;13.022;2023-02-26T05:44:21;-0.90;99.90
14397;DHT22;50653;47.810;13.022;2023-02-26T05:46:47;-1.00;99.90
14397;DHT22;50653;47.810;13.022;2023-02-26T05:49:13;-1.00;99.90
14397;DHT22;50653;47.810;13.022;2023-02-26T05:51:38;-1.10;99.90
14397;DHT22;50653;47.810;13.022;2023-02-26T05:54:05;-1.00;99.90
14397;DHT22;50653;47.810;13.022;2023-02-26T05:56:30;-1.00;99.90
14397;DHT22;50653;47.810;13.022;2023-02-26T05:58:56;-1.00;99.90
14397;DHT22;50653;47.810;13.022;2023-02-26T06:01:22;-1.10;99.90
14397;DHT22;50653;47.810;13.022;2023-02-26T06:03:48;-1.00;99.90
14397;DHT22;50653;47.810;13.022;2023-02-26T06:06:14;-1.10;99.90
14397;DHT22;50653;47.810;13.022;2023-02-26T06:08:44;-1.10;99.90
14397;DHT22;50653;47.810;13.022;2023-02-26T06:11:10;-1.10;99.90
14397;DHT22;50653;47.810;13.022;2023-02-26T06:13:37;-0.80;99.90
14397;DHT22;50653;47.810;13.022;2023-02-26T06:16:03;-0.90;99.90
14397;DHT22;50653;47.810;13.022;2023-02-26T06:18:29;-0.90;99.90
14397;DHT22;50653;47.810;13.022;2023-02-26T06:20:56;-1.00;99.90
14397;DHT22;50653;47.810;13.022;2023-02-26T06:23:22;-1.00;99.90
14397;DHT22;50653;47.810;13.022;2023-02-26T06:25:50;-1.10;99.90
14397;DHT22;50653;47.810;13.022;2023-02-26T06:28:16;-1.20;99.90
14397;DHT22;50653;47.810;13.022;2023-02-26T06:30:42;-1.20;99.90
14397;DHT22;50653;47.810;13.022;2023-02-26T06:33:07;-1.20;99.90
14397;DHT22;50653;47.810;13.022;2023-02-26T06:35:33;-1.20;99.90
14397;DHT22;50653;47.810;13.022;2023-02-26T06:37:59;-1.20;99.90
14397;DHT22;50653;47.810;13.022;2023-02-26T06:40:24;-1.10;99.90
14397;DHT22;50653;47.810;13.022;2023-02-26T06:42:50;-1.20;99.90
14397;DHT22;50653;47.810;13.022;2023-02-26T06:45:16;-1.10;99.90
14397;DHT22;50653;47.810;13.022;2023-02-26T06:47:42;-1.10;99.90
14397;DHT22;50653;47.810;13.022;2023-02-26T06:50:08;-1.20;99.90
14397;DHT22;50653;47.810;13.022;2023-02-26T06:52:35;-1.30;99.90
14397;DHT22;50653;47.810;13.022;2023-02-26T06:55:01;-1.30;99.90
14397;DHT22;50653;47.810;13.022;2023-02-26T06:57:27;-1.40;99.90
14397;DHT22;50653;47.810;13.022;2023-02-26T06:59:52;-1.40;99.90
14397;DHT22;50653;47.810;13.022;2023-02-26T07:02:20;-1.20;99.90
14397;DHT22;50653;47.810;13.022;2023-02-26T07:04:46;-1.30;99.90
14397;DHT22;50653;47.810;13.022;2023-02-26T07:07:12;-1.30;99.90
14397;DHT22;50653;47.810;13.022;2023-02-26T07:09:38;-1.40;99.90
14397;DHT22;50653;47.810;13.022;2023-02-26T07:12:04;-1.40;99.90
14397;DHT22;50653;47.810;13.022;2023-02-26T07:14:32;-1.30;99.90
14397;DHT22;50653;47.810;13.022;2023-02-26T07:16:57;-1.30;99.90
14397;DHT22;50653;47.810;13.022;2023-02-26T07:19:23;-1.30;99.90
14397;DHT22;50653;47.810;13.022;2023-02-26T07:21:49;-1.10;99.90
14397;DHT22;50653;47.810;13.022;2023-02-26T07:24:14;-0.90;99.90
14397;DHT22;50653;47.810;13.022;2023-02-26T07:26:40;-0.80;99.90
14397;DHT22;50653;47.810;13.022;2023-02-26T07:29:06;-0.90;99.90
14397;DHT22;50653;47.810;13.022;2023-02-26T07:31:31;-0.80;99.90
14397;DHT22;50653;47.810;13.022;2023-02-26T07:33:57;-0.90;99.90
14397;DHT22;50653;47.810;13.022;2023-02-26T07:36:23;-1.10;99.90
14397;DHT22;50653;47.810;13.022;2023-02-26T07:38:48;-1.20;99.90
14397;DHT22;50653;47.810;13.022;2023-02-26T07:41:14;-1.20;99.90
14397;DHT22;50653;47.810;13.022;2023-02-26T07:43:40;-1.10;99.90
14397;DHT22;50653;47.810;13.022;2023-02-26T07:46:07;-1.00;99.90
14397;DHT22;50653;47.810;13.022;2023-02-26T07:48:33;-1.00;99.90
14397;DHT22;50653;47.810;13.022;2023-02-26T07:50:58;-1.00;99.90
14397;DHT22;50653;47.810;13.022;2023-02-26T07:53:24;-1.10;99.90
14397;DHT22;50653;47.810;13.022;2023-02-26T07:55:50;-1.20;99.90
14397;DHT22;50653;47.810;13.022;2023-02-26T07:58:16;-1.20;99.90
14397;DHT22;50653;47.810;13.022;2023-02-26T08:00:42;-1.00;99.90
14397;DHT22;50653;47.810;13.022;2023-02-26T08:03:08;-1.00;99.90
14397;DHT22;50653;47.810;13.022;2023-02-26T08:05:33;-1.10;99.90
14397;DHT22;50653;47.810;13.022;2023-02-26T08:07:59;-1.00;99.90
14397;DHT22;50653;47.810;13.022;2023-02-26T08:10:26;-0.80;99.90
14397;DHT22;50653;47.810;13.022;2023-02-26T08:12:52;-0.80;99.90
14397;DHT22;50653;47.810;13.022;2023-02-26T08:15:18;-0.80;99.90
14397;DHT22;50653;47.810;13.022;2023-02-26T08:17:43;-0.80;99.90
14397;DHT22;50653;47.810;13.022;2023-02-26T08:20:10;-0.90;99.90
14397;DHT22;50653;47.810;13.022;2023-02-26T08:22:36;-0.90;99.90
14397;DHT22;50653;47.810;13.022;2023-02-26T08:25:03;-0.70;99.90
14397;DHT22;50653;47.810;13.022;2023-02-26T08:27:29;-0.80;99.90
14397;DHT22;50653;47.810;13.022;2023-02-26T08:29:55;-0.70;99.90
14397;DHT22;50653;47.810;13.022;2023-02-26T08:32:21;-0.60;99.90
14397;DHT22;50653;47.810;13.022;2023-02-26T08:34:47;-0.40;99.90
14397;DHT22;50653;47.810;13.022;2023-02-26T08:37:13;-0.60;99.90
14397;DHT22;50653;47.810;13.022;2023-02-26T08:39:39;-0.50;99.90
14397;DHT22;50653;47.810;13.022;2023-02-26T08:42:05;-0.30;99.90
14397;DHT22;50653;47.810;13.022;2023-02-26T08:44:31;-0.40;99.90
14397;DHT22;50653;47.810;13.022;2023-02-26T08:46:57;-0.40;99.90
14397;DHT22;50653;47.810;13.022;2023-02-26T08:49:23;-0.30;99.90
14397;DHT22;50653;47.810;13.022;2023-02-26T08:51:48;-0.20;99.90
14397;DHT22;50653;47.810;13.022;2023-02-26T08:54:14;-0.10;99.90
14397;DHT22;50653;47.810;13.022;2023-02-26T08:56:40;0.10;99.90
14397;DHT22;50653;47.810;13.022;2023-02-26T08:59:06;0.10;99.90
14397;DHT22;50653;47.810;13.022;2023-02-26T09:01:34;0.20;99.90
14397;DHT22;50653;47.810;13.022;2023-02-26T09:04:00;0.30;99.90
14397;DHT22;50653;47.810;13.022;2023-02-26T09:06:25;0.40;99.90
14397;DHT22;50653;47.810;13.022;2023-02-26T09:08:51;0.10;99.90
14397;DHT22;50653;47.810;13.022;2023-02-26T09:11:17;0.30;99.90
14397;DHT22;50653;47.810;13.022;2023-02-26T09:13:42;0.20;99.90
14397;DHT22;50653;47.810;13.022;2023-02-26T09:16:08;0.00;99.90
14397;DHT22;50653;47.810;13.022;2023-02-26T09:18:34;0.00;99.90
14397;DHT22;50653;47.810;13.022;2023-02-26T09:20:59;0.20;99.90
14397;DHT22;50653;47.810;13.022;2023-02-26T09:23:25;0.10;99.90
14397;DHT22;50653;47.810;13.022;2023-02-26T09:25:52;0.20;99.90
14397;DHT22;50653;47.810;13.022;2023-02-26T09:28:19;0.30;99.90
14397;DHT22;50653;47.810;13.022;2023-02-26T09:30:44;0.30;99.90
14397;DHT22;50653;47.810;13.022;2023-02-26T09:33:10;0.10;99.90
14397;DHT22;50653;47.810;13.022;2023-02-26T09:35:36;-0.20;99.90
14397;DHT22;50653;47.810;13.022;2023-02-26T09:38:01;-0.30;99.90
14397;DHT22;50653;47.810;13.022;2023-02-26T09:51:46;0.00;99.90
14397;DHT22;50653;47.810;13.022;2023-02-26T09:54:25;0.20;99.90
14397;DHT22;50653;47.810;13.022;2023-02-26T09:56:53;0.30;99.90
14397;DHT22;50653;47.810;13.022;2023-02-26T09:59:20;0.00;99.90
14397;DHT22;50653;47.810;13.022;2023-02-26T10:01:55;0.20;99.90
14397;DHT22;50653;47.810;13.022;2023-02-26T10:07:15;0.70;99.90
14397;DHT22;50653;47.810;13.022;2023-02-26T10:10:09;0.70;99.90
14397;DHT22;50653;47.810;13.022;2023-02-26T10:12:40;0.50;99.90
14397;DHT22;50653;47.810;13.022;2023-02-26T10:15:14;0.40;99.90
14397;DHT22;50653;47.810;13.022;2023-02-26T10:18:01;0.20;99.90
14397;DHT22;50653;47.810;13.022;2023-02-26T10:20:56;0.30;99.90
14397;DHT22;50653;47.810;13.022;2023-02-26T10:23:40;0.30;99.90
14397;DHT22;50653;47.810;13.022;2023-02-26T10:37:12;0.90;99.90
14397;DHT22;50653;47.810;13.022;2023-02-26T10:42:22;1.00;99.90
14397;DHT22;50653;47.810;13.022;2023-02-26T10:47:40;0.90;99.90
14397;DHT22;50653;47.810;13.022;2023-02-26T10:50:16;0.80;99.90
14397;DHT22;50653;47.810;13.022;2023-02-26T10:52:44;0.70;99.90
14397;DHT22;50653;47.810;13.022;2023-02-26T10:58:13;0.90;99.90
14397;DHT22;50653;47.810;13.022;2023-02-26T11:00:42;1.00;99.90
14397;DHT22;50653;47.810;13.022;2023-02-26T11:03:21;0.80;99.90
14397;DHT22;50653;47.810;13.022;2023-02-26T11:05:49;0.70;99.90
14397;DHT22;50653;47.810;13.022;2023-02-26T11:08:19;0.50;99.90
14397;DHT22;50653;47.810;13.022;2023-02-26T11:13:18;0.30;99.90
14397;DHT22;50653;47.810;13.022;2023-02-26T11:15:47;0.20;99.90
14397;DHT22;50653;47.810;13.022;2023-02-26T11:18:25;0.30;99.90
14397;DHT22;50653;47.810;13.022;2023-02-26T11:20:54;0.40;99.90
14397;DHT22;50653;47.810;13.022;2023-02-26T11:23:23;0.60;99.90
14397;DHT22;50653;47.810;13.022;2023-02-26T11:26:04;0.70;99.90
14397;DHT22;50653;47.810;13.022;2023-02-26T11:28:35;0.80;99.90
14397;DHT22;50653;47.810;13.022;2023-02-26T11:31:06;0.90;99.90
14397;DHT22;50653;47.810;13.022;2023-02-26T11:33:43;0.90;99.90
14397;DHT22;50653;47.810;13.022;2023-02-26T11:36:13;0.90;99.90
14397;DHT22;50653;47.810;13.022;2023-02-26T11:38:40;0.90;99.90
14397;DHT22;50653;47.810;13.022;2023-02-26T11:41:10;0.90;99.90
14397;DHT22;50653;47.810;13.022;2023-02-26T11:43:41;0.80;99.90
14397;DHT22;50653;47.810;13.022;2023-02-26T11:46:08;0.90;99.90
14397;DHT22;50653;47.810;13.022;2023-02-26T11:48:46;1.00;99.90
14397;DHT22;50653;47.810;13.022;2023-02-26T11:51:15;1.00;99.90
14397;DHT22;50653;47.810;13.022;2023-02-26T11:53:47;0.90;99.90
14397;DHT22;50653;47.810;13.022;2023-02-26T11:56:24;1.00;99.90
14397;DHT22;50653;47.810;13.022;2023-02-26T11:58:52;1.10;99.90
14397;DHT22;50653;47.810;13.022;2023-02-26T12:01:20;1.10;99.90
14397;DHT22;50653;47.810;13.022;2023-02-26T12:03:51;0.90;99.90
14397;DHT22;50653;47.810;13.022;2023-02-26T12:06:22;0.70;99.90
14397;DHT22;50653;47.810;13.022;2023-02-26T12:08:49;0.50;99.90
14397;DHT22;50653;47.810;13.022;2023-02-26T12:14:24;0.40;99.90
14397;DHT22;50653;47.810;13.022;2023-02-26T12:19:56;0.60;99.90
14397;DHT22;50653;47.810;13.022;2023-02-26T12:22:47;0.70;99.90
14397;DHT22;50653;47.810;13.022;2023-02-26T12:28:38;0.80;99.90
14397;DHT22;50653;47.810;13.022;2023-02-26T12:45:53;1.30;99.90
14397;DHT22;50653;47.810;13.022;2023-02-26T13:00:15;1.70;99.90
14397;DHT22;50653;47.810;13.022;2023-02-26T13:03:21;1.50;99.90
14397;DHT22;50653;47.810;13.022;2023-02-26T13:06:12;1.60;99.90
14397;DHT22;50653;47.810;13.022;2023-02-26T13:09:02;1.90;99.90
14397;DHT22;50653;47.810;13.022;2023-02-26T13:11:41;1.90;99.90
14397;DHT22;50653;47.810;13.022;2023-02-26T13:17:23;2.00;99.90
14397;DHT22;50653;47.810;13.022;2023-02-26T13:20:00;1.90;99.90
14397;DHT22;50653;47.810;13.022;2023-02-26T13:22:40;1.70;99.90
14397;DHT22;50653;47.810;13.022;2023-02-26T13:28:20;1.70;99.90
14397;DHT22;50653;47.810;13.022;2023-02-26T13:30:50;1.70;99.90
14397;DHT22;50653;47.810;13.022;2023-02-26T13:33:22;1.50;99.90
14397;DHT22;50653;47.810;13.022;2023-02-26T13:35:50;1.50;99.90
14397;DHT22;50653;47.810;13.022;2023-02-26T13:38:34;1.60;99.90
14397;DHT22;50653;47.810;13.022;2023-02-26T13:43:40;1.80;99.90
14397;DHT22;50653;47.810;13.022;2023-02-26T13:49:06;1.90;99.90
14397;DHT22;50653;47.810;13.022;2023-02-26T13:51:43;1.90;99.90
14397;DHT22;50653;47.810;13.022;2023-02-26T14:04:58;1.70;99.90
14397;DHT22;50653;47.810;13.022;2023-02-26T14:07:47;1.80;99.30
14397;DHT22;50653;47.810;13.022;2023-02-26T14:10:35;1.80;98.80
14397;DHT22;50653;47.810;13.022;2023-02-26T14:13:20;1.80;99.60
14397;DHT22;50653;47.810;13.022;2023-02-26T14:16:09;1.80;99.90
14397;DHT22;50653;47.810;13.022;2023-02-26T14:24:03;1.60;99.90
14397;DHT22;50653;47.810;13.022;2023-02-26T14:26:32;1.40;99.90
14397;DHT22;50653;47.810;13.022;2023-02-26T14:34:27;1.60;99.90
14397;DHT22;50653;47.810;13.022;2023-02-26T14:36:59;1.50;99.90
14397;DHT22;50653;47.810;13.022;2023-02-26T14:39:33;1.50;99.90
14397;DHT22;50653;47.810;13.022;2023-02-26T14:42:19;1.30;99.90
14397;DHT22;50653;47.810;13.022;2023-02-26T14:44:49;1.20;99.90
14397;DHT22;50653;47.810;13.022;2023-02-26T14:47:16;1.00;99.90
14397;DHT22;50653;47.810;13.022;2023-02-26T14:49:45;0.80;99.90
14397;DHT22;50653;47.810;13.022;2023-02-26T14:52:25;0.80;99.90
14397;DHT22;50653;47.810;13.022;2023-02-26T14:55:22;0.70;99.90
14397;DHT22;50653;47.810;13.022;2023-02-26T14:58:08;0.70;99.90
14397;DHT22;50653;47.810;13.022;2023-02-26T15:00:52;0.70;99.90
14397;DHT22;50653;47.810;13.022;2023-02-26T15:03:35;0.60;99.90
14397;DHT22;50653;47.810;13.022;2023-02-26T15:11:25;0.30;99.90
14397;DHT22;50653;47.810;13.022;2023-02-26T15:24:47;0.40;99.90
14397;DHT22;50653;47.810;13.022;2023-02-26T15:27:15;0.60;99.90
14397;DHT22;50653;47.810;13.022;2023-02-26T15:29:42;0.70;99.90
14397;DHT22;50653;47.810;13.022;2023-02-26T15:32:27;0.90;99.90
14397;DHT22;50653;47.810;13.022;2023-02-26T15:34:58;0.90;99.90
14397;DHT22;50653;47.810;13.022;2023-02-26T15:37:27;1.00;99.90
14397;DHT22;50653;47.810;13.022;2023-02-26T15:39:54;1.00;99.90
14397;DHT22;50653;47.810;13.022;2023-02-26T15:42:27;0.90;99.90
14397;DHT22;50653;47.810;13.022;2023-02-26T15:44:55;1.10;99.90
14397;DHT22;50653;47.810;13.022;2023-02-26T15:47:22;1.10;99.90
14397;DHT22;50653;47.810;13.022;2023-02-26T15:49:48;1.00;99.90
14397;DHT22;50653;47.810;13.022;2023-02-26T15:52:17;1.10;99.90
14397;DHT22;50653;47.810;13.022;2023-02-26T15:54:49;0.90;99.90
14397;DHT22;50653;47.810;13.022;2023-02-26T15:57:17;0.80;99.90
14397;DHT22;50653;47.810;13.022;2023-02-26T15:59:46;0.70;99.90
14397;DHT22;50653;47.810;13.022;2023-02-26T16:02:14;0.50;99.90
14397;DHT22;50653;47.810;13.022;2023-02-26T16:04:40;0.60;99.90
14397;DHT22;50653;47.810;13.022;2023-02-26T16:07:09;0.70;99.90
14397;DHT22;50653;47.810;13.022;2023-02-26T16:09:39;0.90;99.90
14397;DHT22;50653;47.810;13.022;2023-02-26T16:12:09;1.00;99.90
14397;DHT22;50653;47.810;13.022;2023-02-26T16:14:39;0.90;99.90
14397;DHT22;50653;47.810;13.022;2023-02-26T16:17:07;0.70;99.90
14397;DHT22;50653;47.810;13.022;2023-02-26T16:19:39;0.90;99.90
14397;DHT22;50653;47.810;13.022;2023-02-26T16:22:31;0.90;99.90
14397;DHT22;50653;47.810;13.022;2023-02-26T16:25:17;1.00;99.90
14397;DHT22;50653;47.810;13.022;2023-02-26T16:27:48;1.10;99.90
14397;DHT22;50653;47.810;13.022;2023-02-26T16:30:19;1.10;99.90
14397;DHT22;50653;47.810;13.022;2023-02-26T16:32:52;1.20;99.90
14397;DHT22;50653;47.810;13.022;2023-02-26T16:35:20;1.20;99.90
14397;DHT22;50653;47.810;13.022;2023-02-26T16:37:47;1.20;99.90
14397;DHT22;50653;47.810;13.022;2023-02-26T16:40:32;1.20;99.90
14397;DHT22;50653;47.810;13.022;2023-02-26T16:43:03;1.20;99.90
14397;DHT22;50653;47.810;13.022;2023-02-26T16:48:14;1.00;99.90
14397;DHT22;50653;47.810;13.022;2023-02-26T16:50:41;1.10;99.90
14397;DHT22;50653;47.810;13.022;2023-02-26T16:53:18;1.10;99.90
14397;DHT22;50653;47.810;13.022;2023-02-26T16:55:50;1.10;99.90
14397;DHT22;50653;47.810;13.022;2023-02-26T16:58:17;1.20;99.90
14397;DHT22;50653;47.810;13.022;2023-02-26T17:00:51;1.20;99.90
14397;DHT22;50653;47.810;13.022;2023-02-26T17:03:20;1.30;99.90
14397;DHT22;50653;47.810;13.022;2023-02-26T17:05:58;1.20;99.90
14397;DHT22;50653;47.810;13.022;2023-02-26T17:08:33;1.20;99.90
14397;DHT22;50653;47.810;13.022;2023-02-26T17:11:02;1.20;99.90
14397;DHT22;50653;47.810;13.022;2023-02-26T17:13:30;1.00;99.90
14397;DHT22;50653;47.810;13.022;2023-02-26T17:16:04;0.90;99.90
14397;DHT22;50653;47.810;13.022;2023-02-26T17:18:32;0.80;99.90
14397;DHT22;50653;47.810;13.022;2023-02-26T17:20:58;0.70;99.90
14397;DHT22;50653;47.810;13.022;2023-02-26T17:23:30;0.70;99.90
14397;DHT22;50653;47.810;13.022;2023-02-26T17:25:57;0.80;99.90
14397;DHT22;50653;47.810;13.022;2023-02-26T17:28:29;0.90;99.90
14397;DHT22;50653;47.810;13.022;2023-02-26T17:30:56;1.00;99.90
14397;DHT22;50653;47.810;13.022;2023-02-26T17:33:22;0.80;99.90
14397;DHT22;50653;47.810;13.022;2023-02-26T17:35:48;0.90;99.90
14397;DHT22;50653;47.810;13.022;2023-02-26T17:38:15;1.00;99.90
14397;DHT22;50653;47.810;13.022;2023-02-26T17:40:44;0.90;99.90
14397;DHT22;50653;47.810;13.022;2023-02-26T17:43:11;0.70;99.90
14397;DHT22;50653;47.810;13.022;2023-02-26T17:45:39;0.60;99.90
14397;DHT22;50653;47.810;13.022;2023-02-26T17:48:05;0.50;99.90
14397;DHT22;50653;47.810;13.022;2023-02-26T17:50:52;0.70;99.90
14397;DHT22;50653;47.810;13.022;2023-02-26T17:53:20;0.80;99.90
14397;DHT22;50653;47.810;13.022;2023-02-26T17:55:46;0.70;99.90
14397;DHT22;50653;47.810;13.022;2023-02-26T18:00:45;0.90;99.90
14397;DHT22;50653;47.810;13.022;2023-02-26T18:03:14;0.90;99.90
14397;DHT22;50653;47.810;13.022;2023-02-26T18:05:40;0.90;99.90
14397;DHT22;50653;47.810;13.022;2023-02-26T18:08:19;0.70;99.90
14397;DHT22;50653;47.810;13.022;2023-02-26T18:10:45;0.60;99.90
14397;DHT22;50653;47.810;13.022;2023-02-26T18:13:11;0.50;99.90
14397;DHT22;50653;47.810;13.022;2023-02-26T18:15:37;0.50;99.90
14397;DHT22;50653;47.810;13.022;2023-02-26T18:18:03;0.30;99.90
14397;DHT22;50653;47.810;13.022;2023-02-26T18:20:31;0.30;99.90
14397;DHT22;50653;47.810;13.022;2023-02-26T18:22:57;0.30;99.90
14397;DHT22;50653;47.810;13.022;2023-02-26T18:25:23;0.20;99.90
14397;DHT22;50653;47.810;13.022;2023-02-26T18:27:52;0.10;99.90
14397;DHT22;50653;47.810;13.022;2023-02-26T18:30:25;0.20;99.90
14397;DHT22;50653;47.810;13.022;2023-02-26T18:32:52;0.20;99.90
14397;DHT22;50653;47.810;13.022;2023-02-26T18:35:18;0.20;99.90
14397;DHT22;50653;47.810;13.022;2023-02-26T18:37:44;0.30;99.90
14397;DHT22;50653;47.810;13.022;2023-02-26T18:40:14;0.10;99.90
14397;DHT22;50653;47.810;13.022;2023-02-26T18:42:41;0.30;99.90
14397;DHT22;50653;47.810;13.022;2023-02-26T18:45:07;0.30;99.90
14397;DHT22;50653;47.810;13.022;2023-02-26T18:47:33;0.30;99.90